Time;durP1;ratioP1;P1;durP2;ratioP2;P2;SDS_P1;SDS_P2;PMS_P1;PMS_P2;Temp;Humidity;BMP_temperature;BMP_pressure;BME280_temperature;BME280_humidity;BME280_pressure;Samples;Min_cycle;Max_cycle;Signal;HPM_P1;HPM_P2
2022/06/28 00:01:43;;;;;;;3.15;2.00;;;22.30;57.40;;;;;;5013991;28;20168;-69
2022/06/28 00:04:09;;;;;;;2.30;1.70;;;22.30;57.30;;;;;;5013163;28;20639;-69
2022/06/28 00:06:35;;;;;;;3.97;2.00;;;22.30;57.30;;;;;;5014218;28;20627;-68
2022/06/28 00:09:00;;;;;;;2.58;2.20;;;22.30;57.30;;;;;;5013744;28;20212;-67
2022/06/28 00:11:26;;;;;;;3.38;1.95;;;22.30;57.30;;;;;;5013403;28;20164;-68
2022/06/28 00:13:51;;;;;;;1.92;1.83;;;22.30;57.30;;;;;;5013762;28;20176;-68
2022/06/28 00:16:18;;;;;;;2.45;2.17;;;22.30;57.30;;;;;;5013922;28;20169;-69
2022/06/28 00:18:44;;;;;;;3.70;2.28;;;22.20;57.30;;;;;;5013016;28;20181;-69
2022/06/28 00:21:10;;;;;;;2.38;2.17;;;22.20;57.20;;;;;;5013899;28;20657;-69
2022/06/28 00:23:36;;;;;;;2.10;1.90;;;22.30;57.30;;;;;;5013790;28;20222;-69
2022/06/28 00:26:02;;;;;;;2.40;2.20;;;22.20;57.20;;;;;;5013170;28;20181;-69
2022/06/28 00:28:27;;;;;;;2.40;1.98;;;22.20;57.20;;;;;;5013776;28;20214;-67
2022/06/28 00:30:53;;;;;;;2.20;1.90;;;22.20;57.10;;;;;;5013528;28;20583;-68
2022/06/28 00:33:18;;;;;;;3.45;2.10;;;22.20;57.10;;;;;;5012841;28;20259;-67
2022/06/28 00:35:44;;;;;;;5.07;2.20;;;22.20;57.10;;;;;;5012985;28;20283;-67
2022/06/28 00:38:10;;;;;;;2.28;2.08;;;22.20;57.10;;;;;;5013623;28;20183;-68
2022/06/28 00:40:46;;;;;;;2.30;2.10;;;22.20;57.10;;;;;;5012764;28;20614;-68
2022/06/28 00:43:11;;;;;;;2.97;2.30;;;22.20;57.10;;;;;;4996289;28;20176;-68
2022/06/28 00:45:37;;;;;;;2.40;2.15;;;22.20;57.00;;;;;;5012326;28;20475;-68
2022/06/28 00:48:03;;;;;;;3.17;2.28;;;22.20;57.00;;;;;;5013462;28;20187;-68
2022/06/28 00:50:29;;;;;;;2.10;1.85;;;22.20;57.00;;;;;;5013375;28;20223;-70
2022/06/28 00:53:20;;;;;;;2.30;1.90;;;22.20;57.00;;;;;;5012410;28;20196;-69
2022/06/28 00:55:46;;;;;;;1.92;1.77;;;22.10;57.60;;;;;;5012468;28;20254;-68
2022/06/28 00:58:12;;;;;;;2.10;1.90;;;22.10;56.90;;;;;;5013136;28;20178;-68
2022/06/28 01:00:41;;;;;;;2.05;1.70;;;22.10;56.90;;;;;;5012490;28;20180;-67
2022/06/28 01:03:08;;;;;;;2.00;1.90;;;22.10;56.90;;;;;;5012387;28;20687;-67
2022/06/28 01:05:34;;;;;;;3.00;2.10;;;22.10;57.60;;;;;;4995802;28;20188;-68
2022/06/28 01:07:59;;;;;;;2.47;1.95;;;22.10;56.90;;;;;;4994797;28;20226;-68
2022/06/28 01:10:26;;;;;;;4.20;1.70;;;22.10;57.50;;;;;;5013018;28;20281;-68
2022/06/28 01:12:51;;;;;;;2.00;1.80;;;22.10;56.90;;;;;;5012723;28;20181;-68
2022/06/28 01:15:17;;;;;;;3.50;1.75;;;22.10;56.90;;;;;;5012258;28;20234;-68
2022/06/28 01:17:42;;;;;;;2.22;2.03;;;22.10;56.90;;;;;;4995529;28;20210;-68
2022/06/28 01:20:09;;;;;;;2.65;1.92;;;22.10;56.90;;;;;;5013056;28;20176;-69
2022/06/28 01:22:44;;;;;;;4.90;2.08;;;22.10;56.90;;;;;;4994650;28;20177;-70
2022/06/28 01:25:09;;;;;;;1.90;1.80;;;22.10;56.80;;;;;;5012810;28;20662;-69
2022/06/28 01:27:35;;;;;;;2.50;1.95;;;22.10;56.90;;;;;;5012943;28;20177;-68
2022/06/28 01:30:02;;;;;;;2.85;1.83;;;22.10;56.80;;;;;;5012163;28;20218;-68
2022/06/28 01:32:28;;;;;;;1.80;1.70;;;22.10;56.80;;;;;;5013007;28;20200;-67
2022/06/28 01:34:54;;;;;;;2.95;2.30;;;22.10;56.80;;;;;;4994593;28;20571;-66
2022/06/28 01:37:19;;;;;;;2.22;1.77;;;22.00;56.80;;;;;;4995392;28;20231;-67
2022/06/28 01:39:45;;;;;;;3.35;1.60;;;22.10;56.80;;;;;;5012701;28;20188;-68
2022/06/28 01:42:10;;;;;;;2.08;1.90;;;22.00;56.70;;;;;;5012300;28;20169;-68
2022/06/28 01:44:36;;;;;;;2.72;2.28;;;22.00;56.80;;;;;;5012777;28;20243;-69
2022/06/28 01:47:02;;;;;;;2.13;1.92;;;22.00;56.70;;;;;;5012737;28;20172;-69
2022/06/28 01:49:28;;;;;;;2.72;1.95;;;22.00;56.70;;;;;;4994725;28;20205;-70
2022/06/28 01:51:53;;;;;;;2.20;2.00;;;22.00;56.70;;;;;;5012472;28;20183;-69
2022/06/28 01:54:19;;;;;;;1.80;1.65;;;22.00;56.70;;;;;;5012626;28;20526;-70
2022/06/28 01:56:45;;;;;;;3.67;1.90;;;22.00;56.60;;;;;;5011735;28;20172;-70
2022/06/28 01:59:10;;;;;;;1.92;1.83;;;22.00;56.70;;;;;;5012473;28;20540;-68
2022/06/28 02:01:37;;;;;;;2.85;1.90;;;22.00;56.60;;;;;;5012540;28;20188;-69
2022/06/28 02:04:25;;;;;;;1.80;1.70;;;22.00;56.60;;;;;;5011729;28;20618;-69
2022/06/28 02:06:51;;;;;;;1.90;1.80;;;22.00;56.60;;;;;;5012216;28;20539;-67
2022/06/28 02:09:16;;;;;;;2.33;1.52;;;22.00;56.60;;;;;;5012692;28;20216;-68
2022/06/28 02:11:42;;;;;;;4.03;1.90;;;22.00;56.70;;;;;;5011597;28;20204;-67
2022/06/28 02:14:07;;;;;;;2.35;2.15;;;21.90;56.60;;;;;;5014079;28;20185;-68
2022/06/28 02:16:33;;;;;;;2.95;1.67;;;21.90;56.60;;;;;;5016204;28;20180;-69
2022/06/28 02:18:58;;;;;;;2.03;1.83;;;21.90;56.60;;;;;;5015157;28;20208;-69
2022/06/28 02:21:24;;;;;;;2.08;1.83;;;21.90;56.60;;;;;;5015916;28;20176;-70
2022/06/28 02:23:49;;;;;;;2.05;1.95;;;21.90;56.50;;;;;;5015657;28;20181;-69
2022/06/28 02:26:15;;;;;;;1.70;1.60;;;21.90;56.60;;;;;;5015516;28;20226;-70
2022/06/28 02:28:41;;;;;;;1.65;1.55;;;21.90;56.60;;;;;;5015841;28;20204;-68
2022/06/28 02:31:14;;;;;;;2.13;1.58;;;21.90;56.70;;;;;;5015120;28;20176;-69
2022/06/28 02:33:39;;;;;;;1.60;1.50;;;21.90;56.60;;;;;;5015620;28;20619;-68
2022/06/28 02:41:33;;;;;;;2.00;1.88;;;21.90;56.70;;;;;;5015949;28;20180;-70
2022/06/28 02:43:58;;;;;;;3.88;2.10;;;21.90;56.60;;;;;;5015438;28;20172;-69
2022/06/28 02:46:24;;;;;;;3.13;1.88;;;21.90;56.70;;;;;;5014839;28;20173;-70
2022/06/28 02:48:49;;;;;;;2.17;1.98;;;21.80;56.60;;;;;;5015369;28;20254;-70
2022/06/28 02:51:15;;;;;;;1.60;1.50;;;21.80;56.50;;;;;;5015672;28;20222;-70
2022/06/28 02:53:41;;;;;;;2.63;1.83;;;21.80;56.50;;;;;;5014863;28;20172;-69
2022/06/28 02:56:06;;;;;;;5.35;2.00;;;21.80;56.60;;;;;;5015481;28;20184;-70
2022/06/28 02:58:32;;;;;;;2.42;1.83;;;21.80;56.60;;;;;;5015412;28;20177;-70
2022/06/28 03:00:57;;;;;;;1.70;1.60;;;21.80;56.50;;;;;;5014264;28;20195;-68
2022/06/28 03:03:23;;;;;;;1.60;1.50;;;21.80;56.50;;;;;;5015199;28;20216;-69
2022/06/28 03:05:48;;;;;;;1.65;1.55;;;21.80;56.50;;;;;;5014914;28;20623;-68
2022/06/28 03:08:14;;;;;;;2.05;1.85;;;21.80;56.50;;;;;;5014393;28;20168;-68
2022/06/28 03:10:39;;;;;;;3.08;1.70;;;21.80;56.50;;;;;;5014986;28;20180;-69
2022/06/28 03:13:05;;;;;;;1.52;1.42;;;21.80;56.70;;;;;;5014984;28;20180;-69
2022/06/28 03:15:30;;;;;;;2.25;1.52;;;21.80;56.50;;;;;;5014362;28;20181;-69
2022/06/28 03:17:56;;;;;;;1.60;1.50;;;21.80;56.50;;;;;;5014603;28;20504;-69
2022/06/28 03:20:22;;;;;;;1.52;1.42;;;21.80;56.40;;;;;;5014489;28;20638;-69
2022/06/28 03:22:47;;;;;;;1.83;1.58;;;21.80;56.50;;;;;;5014860;28;20173;-69
2022/06/28 03:25:13;;;;;;;1.60;1.50;;;21.80;56.50;;;;;;5014710;28;20506;-70
2022/06/28 03:27:38;;;;;;;2.00;1.40;;;21.70;56.50;;;;;;5014055;28;20196;-70
2022/06/28 03:30:04;;;;;;;1.45;1.35;;;21.80;56.60;;;;;;5014605;28;20232;-69
2022/06/28 03:32:30;;;;;;;1.77;1.67;;;21.70;56.40;;;;;;5014673;28;20177;-68
2022/06/28 03:34:55;;;;;;;1.95;1.58;;;21.70;56.40;;;;;;5013837;28;20238;-68
2022/06/28 03:37:21;;;;;;;1.58;1.48;;;21.70;56.50;;;;;;5014709;28;20540;-69
2022/06/28 03:39:46;;;;;;;2.05;1.65;;;21.70;56.50;;;;;;5014384;28;20651;-69
2022/06/28 03:42:12;;;;;;;2.97;1.80;;;21.70;56.50;;;;;;5013838;28;20169;-69
2022/06/28 03:44:38;;;;;;;5.10;1.98;;;21.70;56.50;;;;;;5014339;28;20196;-71
2022/06/28 03:47:03;;;;;;;2.00;1.48;;;21.70;56.50;;;;;;5014315;28;20285;-70
2022/06/28 03:49:29;;;;;;;1.95;1.55;;;21.70;56.50;;;;;;5013782;28;20298;-70
2022/06/28 03:51:55;;;;;;;3.20;1.80;;;21.70;56.40;;;;;;5014290;28;20251;-69
2022/06/28 03:54:20;;;;;;;1.77;1.67;;;21.70;56.40;;;;;;5014421;28;20549;-70
2022/06/28 03:56:46;;;;;;;2.15;1.88;;;21.70;56.50;;;;;;5013257;28;20187;-68
2022/06/28 03:59:11;;;;;;;3.63;1.65;;;21.70;56.30;;;;;;5014340;28;20204;-67
2022/06/28 04:01:37;;;;;;;2.65;1.55;;;21.70;56.30;;;;;;5013797;28;20222;-67
2022/06/28 04:04:02;;;;;;;2.28;1.70;;;21.70;56.30;;;;;;5013326;28;20275;-68
2022/06/28 04:06:28;;;;;;;1.60;1.50;;;21.70;56.30;;;;;;5014270;28;20227;-67
2022/06/28 04:08:53;;;;;;;1.63;1.52;;;21.70;56.30;;;;;;5013726;28;20212;-67
2022/06/28 04:11:19;;;;;;;1.58;1.48;;;21.70;56.20;;;;;;5013412;28;20168;-67
2022/06/28 04:13:47;;;;;;;1.83;1.73;;;21.70;56.30;;;;;;5013830;28;20172;-67
2022/06/28 04:16:13;;;;;;;1.77;1.67;;;21.70;56.20;;;;;;5013881;28;20230;-68
2022/06/28 04:18:39;;;;;;;2.30;1.80;;;21.70;56.20;;;;;;5013005;28;20525;-68
2022/06/28 04:21:04;;;;;;;2.00;1.90;;;21.70;56.10;;;;;;5013866;28;20180;-68
2022/06/28 04:23:30;;;;;;;1.80;1.58;;;21.70;56.30;;;;;;5013680;28;20665;-68
2022/06/28 04:25:55;;;;;;;1.52;1.42;;;21.70;56.20;;;;;;5013346;28;20620;-69
2022/06/28 04:28:21;;;;;;;3.10;1.65;;;21.70;56.30;;;;;;5013697;28;20299;-68
2022/06/28 04:30:46;;;;;;;2.03;1.75;;;21.70;56.20;;;;;;5012601;28;20553;-68
2022/06/28 04:33:12;;;;;;;2.13;1.88;;;21.70;56.20;;;;;;5013571;28;20642;-69
2022/06/28 04:35:37;;;;;;;4.18;2.25;;;21.70;56.30;;;;;;5013156;28;20638;-68
2022/06/28 04:38:03;;;;;;;2.15;1.70;;;21.70;56.20;;;;;;5012326;28;20192;-69
2022/06/28 04:40:28;;;;;;;1.95;1.55;;;21.70;56.20;;;;;;5013519;28;20179;-69
2022/06/28 04:42:54;;;;;;;2.95;1.65;;;21.70;56.20;;;;;;5013328;28;20176;-68
2022/06/28 04:45:19;;;;;;;2.42;1.95;;;21.70;56.20;;;;;;5012659;28;20180;-69
2022/06/28 04:47:45;;;;;;;2.20;1.73;;;21.70;56.10;;;;;;5013406;28;20184;-69
2022/06/28 04:50:10;;;;;;;1.63;1.50;;;21.70;56.20;;;;;;5013486;28;20239;-69
2022/06/28 04:52:36;;;;;;;1.58;1.45;;;21.70;56.20;;;;;;5012624;28;20536;-69
2022/06/28 04:55:02;;;;;;;1.80;1.70;;;21.70;56.20;;;;;;5013206;28;20631;-69
2022/06/28 04:57:28;;;;;;;1.85;1.55;;;21.80;56.20;;;;;;5013296;28;20180;-69
2022/06/28 04:59:54;;;;;;;1.63;1.52;;;21.80;56.30;;;;;;5012044;28;20177;-68
2022/06/28 05:02:19;;;;;;;2.00;1.90;;;21.70;56.30;;;;;;5013422;28;20184;-69
2022/06/28 05:04:45;;;;;;;1.80;1.55;;;21.70;56.30;;;;;;5012822;28;20337;-68
2022/06/28 05:07:10;;;;;;;2.50;1.70;;;21.70;56.30;;;;;;5012387;28;20263;-68
2022/06/28 05:09:36;;;;;;;2.22;1.60;;;21.80;56.50;;;;;;5012886;28;20259;-68
2022/06/28 05:12:01;;;;;;;1.55;1.45;;;21.80;56.50;;;;;;5013023;28;20263;-68
2022/06/28 05:14:27;;;;;;;2.20;1.50;;;21.80;56.50;;;;;;5012354;28;20263;-68
2022/06/28 05:16:53;;;;;;;2.70;1.40;;;21.80;56.50;;;;;;5012701;28;20176;-68
2022/06/28 05:19:18;;;;;;;2.47;1.50;;;21.80;56.60;;;;;;5012821;28;20187;-68
2022/06/28 05:21:44;;;;;;;2.08;1.55;;;21.80;56.60;;;;;;5012172;28;20550;-68
2022/06/28 05:24:09;;;;;;;2.30;1.67;;;21.80;56.70;;;;;;5012862;28;20172;-69
2022/06/28 05:26:35;;;;;;;1.67;1.58;;;21.80;56.70;;;;;;5012946;28;20173;-69
2022/06/28 05:29:01;;;;;;;1.40;1.30;;;21.80;56.70;;;;;;5011983;28;20609;-67
2022/06/28 05:31:26;;;;;;;1.55;1.45;;;21.80;56.70;;;;;;5013056;28;20685;-68
2022/06/28 05:33:52;;;;;;;1.60;1.50;;;21.80;56.80;;;;;;5012125;28;20173;-67
2022/06/28 05:36:17;;;;;;;1.65;1.30;;;21.80;56.90;;;;;;5012967;28;20254;-68
2022/06/28 05:38:43;;;;;;;2.40;1.55;;;21.80;56.90;;;;;;5012478;28;20294;-68
2022/06/28 05:41:09;;;;;;;3.33;1.55;;;21.80;56.90;;;;;;5012173;28;20650;-68
2022/06/28 05:43:35;;;;;;;2.53;1.50;;;21.80;56.90;;;;;;5012681;28;20180;-68
2022/06/28 05:46:01;;;;;;;1.67;1.55;;;21.80;56.90;;;;;;5012811;28;20179;-69
2022/06/28 05:48:26;;;;;;;2.92;1.63;;;21.80;57.00;;;;;;5014310;28;20199;-69
2022/06/28 05:50:52;;;;;;;1.92;1.40;;;21.80;57.00;;;;;;5016243;28;20582;-70
2022/06/28 05:53:17;;;;;;;1.63;1.52;;;21.80;57.00;;;;;;5016855;28;20646;-69
2022/06/28 05:55:43;;;;;;;2.10;1.60;;;21.80;57.00;;;;;;5015786;28;20639;-68
2022/06/28 05:58:08;;;;;;;1.85;1.40;;;21.80;57.70;;;;;;5016447;28;20230;-68
2022/06/28 06:00:37;;;;;;;1.73;1.60;;;21.80;57.10;;;;;;5016662;28;20230;-68
2022/06/28 06:03:03;;;;;;;2.05;1.73;;;21.80;57.10;;;;;;5015575;28;20224;-68
2022/06/28 06:05:28;;;;;;;1.60;1.50;;;21.80;57.10;;;;;;5016595;28;20256;-68
2022/06/28 06:07:54;;;;;;;1.60;1.38;;;21.80;57.10;;;;;;5016154;28;20219;-67
2022/06/28 06:10:20;;;;;;;1.48;1.38;;;21.80;57.00;;;;;;5015509;28;20213;-68
2022/06/28 06:12:45;;;;;;;1.50;1.40;;;21.80;57.00;;;;;;5015824;28;20168;-68
2022/06/28 06:15:11;;;;;;;1.30;1.20;;;21.80;57.00;;;;;;5016089;28;20268;-68
2022/06/28 06:17:37;;;;;;;1.50;1.40;;;21.80;57.00;;;;;;5015524;28;20255;-69
2022/06/28 06:20:03;;;;;;;1.40;1.30;;;21.80;57.10;;;;;;5016205;28;20172;-69
2022/06/28 06:22:29;;;;;;;1.50;1.40;;;21.80;57.00;;;;;;5016111;28;20176;-69
2022/06/28 06:24:55;;;;;;;2.05;1.25;;;21.80;56.90;;;;;;5015087;28;20632;-68
2022/06/28 06:27:21;;;;;;;1.77;1.50;;;21.90;57.00;;;;;;5015950;28;20172;-68
2022/06/28 06:29:46;;;;;;;1.92;1.30;;;21.90;57.00;;;;;;5015710;28;20250;-67
2022/06/28 06:32:12;;;;;;;4.40;1.90;;;21.90;57.00;;;;;;5015122;28;20363;-68
2022/06/28 06:34:37;;;;;;;2.35;2.10;;;21.90;57.60;;;;;;5015759;28;20215;-68
2022/06/28 06:37:03;;;;;;;2.08;1.60;;;21.80;57.00;;;;;;5015813;28;20180;-68
2022/06/28 06:39:29;;;;;;;2.65;1.60;;;21.90;57.00;;;;;;5015115;28;20180;-66
2022/06/28 06:41:54;;;;;;;3.90;1.50;;;21.90;57.20;;;;;;5015320;28;20177;-69
2022/06/28 06:44:20;;;;;;;3.70;1.40;;;21.90;57.20;;;;;;5015125;28;20177;-68
2022/06/28 06:46:45;;;;;;;5.13;1.70;;;21.90;57.80;;;;;;5015387;28;20180;-68
2022/06/28 06:49:14;;;;;;;1.88;1.40;;;21.90;57.40;;;;;;5015456;28;20244;-70
2022/06/28 06:51:44;;;;;;;5.90;1.80;;;21.90;57.30;;;;;;5014773;28;20233;-68
2022/06/28 06:54:09;;;;;;;3.05;1.50;;;21.90;57.20;;;;;;5015287;28;20655;-69
2022/06/28 06:56:35;;;;;;;2.60;1.50;;;21.90;57.20;;;;;;5015406;28;20172;-69
2022/06/28 06:59:00;;;;;;;5.10;1.63;;;21.90;57.20;;;;;;5014236;28;20702;-68
2022/06/28 07:01:29;;;;;;;11.23;2.20;;;21.90;57.30;;;;;;5015364;28;20187;-70
2022/06/28 07:03:55;;;;;;;7.68;2.40;;;21.90;57.40;;;;;;5014905;28;20252;-67
2022/06/28 07:06:20;;;;;;;6.75;2.30;;;22.00;57.30;;;;;;5014667;28;20638;-67
2022/06/28 07:08:46;;;;;;;6.30;2.05;;;21.90;57.20;;;;;;5014765;28;20216;-68
2022/06/28 07:11:11;;;;;;;6.32;2.05;;;22.00;57.30;;;;;;5015084;28;20183;-69
2022/06/28 07:13:37;;;;;;;5.13;1.70;;;22.00;57.30;;;;;;5014396;28;20179;-69
2022/06/28 07:16:02;;;;;;;3.65;1.65;;;22.00;57.20;;;;;;5014963;28;20537;-69
2022/06/28 07:18:29;;;;;;;8.48;2.03;;;22.00;57.20;;;;;;5015187;28;20184;-70
2022/06/28 07:20:55;;;;;;;4.30;2.05;;;22.10;57.20;;;;;;5014022;28;20230;-68
2022/06/28 07:23:21;;;;;;;6.40;1.95;;;22.10;57.40;;;;;;5014898;28;20188;-68
2022/06/28 07:25:46;;;;;;;5.10;2.15;;;22.10;57.40;;;;;;5014989;28;20185;-67
2022/06/28 07:28:12;;;;;;;5.45;1.80;;;22.10;57.40;;;;;;5014408;28;20268;-67
2022/06/28 07:30:37;;;;;;;5.75;1.83;;;22.10;57.40;;;;;;5014654;28;20303;-67
2022/06/28 07:33:03;;;;;;;5.60;1.85;;;22.10;57.30;;;;;;5014692;28;20177;-67
2022/06/28 07:35:29;;;;;;;3.35;1.63;;;22.10;57.30;;;;;;5014085;28;20211;-66
2022/06/28 07:37:54;;;;;;;6.07;1.83;;;22.10;57.30;;;;;;5014423;28;20635;-67
2022/06/28 07:40:20;;;;;;;6.25;1.85;;;22.10;57.30;;;;;;5014622;28;20547;-67
2022/06/28 07:42:46;;;;;;;5.22;1.65;;;22.10;57.20;;;;;;5013850;28;20226;-68
2022/06/28 07:45:12;;;;;;;5.20;1.90;;;22.20;57.20;;;;;;5014398;28;20635;-67
2022/06/28 07:47:37;;;;;;;3.67;1.90;;;22.10;57.20;;;;;;5013696;28;20195;-67
2022/06/28 07:52:47;;;;;;;5.38;2.00;;;22.10;57.30;;;;;;5014075;28;20176;-67
2022/06/28 07:55:13;;;;;;;3.63;1.73;;;22.20;57.30;;;;;;5013803;28;20169;-68
2022/06/28 07:57:38;;;;;;;3.95;1.50;;;22.20;57.20;;;;;;5014052;28;20690;-67
2022/06/28 08:00:05;;;;;;;4.35;1.45;;;22.20;57.30;;;;;;5014309;28;20252;-67
2022/06/28 08:02:31;;;;;;;3.78;1.73;;;22.20;57.30;;;;;;5013387;28;20217;-66
2022/06/28 08:04:56;;;;;;;3.53;1.75;;;22.20;57.30;;;;;;5013877;28;20212;-67
2022/06/28 08:07:22;;;;;;;5.38;1.70;;;22.20;57.20;;;;;;5014096;28;20251;-65
2022/06/28 08:09:48;;;;;;;3.22;1.67;;;22.30;57.20;;;;;;5013121;28;20568;-65
2022/06/28 08:12:14;;;;;;;2.92;1.60;;;22.30;57.20;;;;;;5014065;28;20240;-65
2022/06/28 08:14:39;;;;;;;4.18;2.03;;;22.30;57.10;;;;;;5013901;28;20259;-66
2022/06/28 08:17:05;;;;;;;1.92;1.40;;;22.30;57.10;;;;;;5013223;28;20642;-68
2022/06/28 08:19:31;;;;;;;2.80;1.60;;;22.30;57.70;;;;;;5014076;28;20176;-67
2022/06/28 08:21:56;;;;;;;2.03;1.40;;;22.30;57.10;;;;;;5013420;28;20635;-67
2022/06/28 08:24:22;;;;;;;3.22;1.45;;;22.40;57.10;;;;;;5013423;28;20619;-67
2022/06/28 08:26:47;;;;;;;3.03;1.90;;;22.40;57.10;;;;;;5013537;28;20512;-67
2022/06/28 08:29:14;;;;;;;3.35;1.40;;;22.40;57.10;;;;;;5013656;28;20240;-66
2022/06/28 08:31:40;;;;;;;4.00;1.63;;;22.40;57.10;;;;;;5012861;28;20259;-66
2022/06/28 08:34:06;;;;;;;3.63;1.38;;;22.40;57.00;;;;;;5013617;28;20260;-65
2022/06/28 08:36:31;;;;;;;3.97;1.42;;;22.40;56.90;;;;;;5013498;28;20195;-66
2022/06/28 08:38:57;;;;;;;2.10;1.20;;;22.40;57.00;;;;;;5012481;28;20186;-66
2022/06/28 08:41:23;;;;;;;1.95;1.30;;;22.50;57.00;;;;;;5013605;28;20173;-67
2022/06/28 08:43:49;;;;;;;2.70;1.45;;;22.50;57.00;;;;;;5012695;28;20247;-66
2022/06/28 08:46:14;;;;;;;2.72;1.40;;;22.50;57.00;;;;;;4995947;28;20627;-66
2022/06/28 08:48:43;;;;;;;2.55;1.40;;;22.50;56.90;;;;;;4995670;28;20177;-66
2022/06/28 08:51:09;;;;;;;2.10;1.45;;;22.50;56.90;;;;;;5012597;28;20546;-67
2022/06/28 08:53:39;;;;;;;5.72;1.63;;;22.50;56.90;;;;;;5013521;28;20211;-67
2022/06/28 08:56:05;;;;;;;2.85;1.40;;;22.60;57.00;;;;;;5013458;28;20180;-68
2022/06/28 08:58:31;;;;;;;2.88;1.60;;;22.50;56.90;;;;;;5012753;28;20177;-68
2022/06/28 09:00:56;;;;;;;2.85;1.10;;;22.60;57.10;;;;;;4995440;28;20172;-66
2022/06/28 09:03:22;;;;;;;6.13;1.88;;;22.60;57.10;;;;;;4995550;28;20229;-70
2022/06/28 09:05:47;;;;;;;2.28;1.50;;;22.60;57.20;;;;;;4994520;28;20315;-67
2022/06/28 09:08:13;;;;;;;5.22;1.85;;;22.60;56.90;;;;;;5013007;28;20568;-68
2022/06/28 09:10:38;;;;;;;1.33;1.13;;;22.60;56.90;;;;;;5012998;28;20239;-68
2022/06/28 09:13:09;;;;;;;4.22;1.38;;;22.60;56.90;;;;;;5012255;28;20525;-68
2022/06/28 09:15:58;;;;;;;5.47;1.42;;;22.60;57.00;;;;;;5013153;28;20274;-70
2022/06/28 09:18:26;;;;;;;2.53;1.15;;;22.70;57.00;;;;;;5013031;28;20273;-70
2022/06/28 09:20:53;;;;;;;2.53;1.23;;;22.70;57.00;;;;;;5012251;28;20259;-69
2022/06/28 09:23:25;;;;;;;1.98;1.33;;;22.70;56.90;;;;;;5012636;28;20181;-69
2022/06/28 09:25:52;;;;;;;2.22;1.05;;;22.70;56.90;;;;;;5012793;28;20204;-68
2022/06/28 09:28:22;;;;;;;5.00;1.20;;;22.70;56.90;;;;;;5012296;28;20172;-68
2022/06/28 09:30:48;;;;;;;3.30;1.40;;;22.80;56.90;;;;;;5012519;28;20220;-68
2022/06/28 09:33:26;;;;;;;2.00;1.20;;;22.80;56.80;;;;;;5012436;28;20493;-68
2022/06/28 09:35:52;;;;;;;3.30;1.25;;;22.70;56.80;;;;;;5012642;28;20538;-68
2022/06/28 09:38:32;;;;;;;4.32;1.48;;;22.80;56.90;;;;;;5012973;28;20176;-68
2022/06/28 09:40:59;;;;;;;2.30;1.23;;;22.80;56.80;;;;;;5011811;28;20180;-68
2022/06/28 09:43:32;;;;;;;4.25;1.50;;;22.80;56.80;;;;;;5013017;28;20203;-68
2022/06/28 09:45:58;;;;;;;2.20;1.13;;;22.80;56.80;;;;;;5012651;28;20550;-68
2022/06/28 09:48:24;;;;;;;1.83;1.00;;;22.80;56.80;;;;;;4994506;28;20184;-68
2022/06/28 09:50:50;;;;;;;4.07;1.23;;;22.80;56.80;;;;;;5012326;28;20235;-68
2022/06/28 09:53:16;;;;;;;4.05;1.63;;;22.80;56.80;;;;;;4979338;28;20183;-68
2022/06/28 09:55:42;;;;;;;3.10;1.30;;;22.90;56.80;;;;;;5011701;28;20259;-69
2022/06/28 09:58:08;;;;;;;3.65;1.35;;;22.90;56.60;;;;;;5012764;28;20260;-68
2022/06/28 10:00:35;;;;;;;2.35;1.40;;;22.90;56.70;;;;;;5012814;28;20184;-68
2022/06/28 10:03:01;;;;;;;3.78;1.40;;;22.90;56.70;;;;;;5011782;28;20220;-68
2022/06/28 10:05:26;;;;;;;1.92;1.02;;;22.90;56.70;;;;;;5012811;28;20263;-67
2022/06/28 10:07:52;;;;;;;2.13;1.38;;;22.90;56.70;;;;;;4994900;28;20187;-67
2022/06/28 10:10:17;;;;;;;2.30;1.10;;;23.00;56.60;;;;;;5011624;28;20714;-67
2022/06/28 10:15:32;;;;;;;4.68;1.20;;;23.00;56.60;;;;;;5011914;28;20223;-68
2022/06/28 10:18:15;;;;;;;2.60;1.25;;;23.00;56.50;;;;;;4995290;28;20173;-68
2022/06/28 10:20:43;;;;;;;2.20;1.08;;;23.00;56.40;;;;;;4994667;28;20180;-69
2022/06/28 10:23:33;;;;;;;1.45;1.00;;;23.00;56.30;;;;;;5011666;28;20173;-69
2022/06/28 10:26:11;;;;;;;2.17;1.33;;;23.00;56.30;;;;;;4995332;28;20643;-68
2022/06/28 10:28:59;;;;;;;1.90;0.98;;;23.00;56.20;;;;;;5012190;28;20260;-68
2022/06/28 10:31:25;;;;;;;2.05;1.20;;;23.00;56.20;;;;;;5011946;28;20181;-68
2022/06/28 10:33:52;;;;;;;2.10;1.00;;;23.00;56.10;;;;;;5012174;28;20515;-67
2022/06/28 10:36:18;;;;;;;1.30;0.90;;;23.00;56.10;;;;;;5014767;28;20702;-67
2022/06/28 10:39:09;;;;;;;2.28;1.05;;;23.10;56.10;;;;;;5015582;28;20180;-67
2022/06/28 10:41:44;;;;;;;1.95;0.90;;;23.10;56.10;;;;;;5015691;28;20181;-70
2022/06/28 10:44:23;;;;;;;2.35;1.10;;;23.10;56.00;;;;;;5015054;28;20180;-69
2022/06/28 10:46:52;;;;;;;2.05;0.98;;;23.10;56.00;;;;;;5015433;28;20226;-70
2022/06/28 10:49:18;;;;;;;1.75;1.00;;;23.10;55.90;;;;;;5015631;28;20215;-68
2022/06/28 10:52:14;;;;;;;3.88;1.08;;;23.10;55.90;;;;;;5014730;28;20543;-69
2022/06/28 10:54:52;;;;;;;3.83;1.40;;;23.20;56.10;;;;;;5015173;28;20704;-68
2022/06/28 10:57:27;;;;;;;3.63;1.25;;;23.20;56.00;;;;;;5000842;28;20541;-73
2022/06/28 10:59:55;;;;;;;4.45;1.40;;;23.20;56.10;;;;;;5015082;28;20176;-68
2022/06/28 11:02:20;;;;;;;4.43;1.10;;;23.20;56.10;;;;;;5015270;28;20181;-69
2022/06/28 11:04:46;;;;;;;2.35;0.93;;;23.20;56.00;;;;;;5014209;28;20675;-68
2022/06/28 11:07:21;;;;;;;3.88;0.85;;;23.20;56.20;;;;;;5015401;28;20559;-68
2022/06/28 11:10:08;;;;;;;4.15;1.38;;;23.20;56.10;;;;;;5014932;28;20215;-67
2022/06/28 11:12:35;;;;;;;3.03;1.20;;;23.20;56.10;;;;;;5014352;28;20219;-69
2022/06/28 11:15:11;;;;;;;2.33;1.00;;;23.20;56.20;;;;;;5015049;28;20188;-67
2022/06/28 11:17:38;;;;;;;2.13;1.10;;;23.20;56.30;;;;;;5014867;28;20187;-68
2022/06/28 11:20:05;;;;;;;2.47;1.05;;;23.20;56.30;;;;;;5014237;28;20187;-68
2022/06/28 11:22:32;;;;;;;2.05;1.05;;;23.20;56.40;;;;;;5015077;28;20212;-69
2022/06/28 11:25:00;;;;;;;1.15;1.00;;;23.30;56.40;;;;;;5014700;28;20185;-69
2022/06/28 11:27:26;;;;;;;2.67;1.17;;;23.20;56.40;;;;;;5014212;28;20196;-71
2022/06/28 11:29:59;;;;;;;3.97;1.20;;;23.30;56.40;;;;;;5014498;28;20663;-70
2022/06/28 11:32:32;;;;;;;3.70;0.85;;;23.30;56.40;;;;;;5015130;28;20180;-70
2022/06/28 11:35:00;;;;;;;1.52;1.00;;;23.30;56.30;;;;;;5014150;28;20662;-63
2022/06/28 11:37:26;;;;;;;1.35;1.00;;;23.30;56.30;;;;;;5014683;28;20631;-60
2022/06/28 11:40:00;;;;;;;2.72;1.10;;;23.30;56.50;;;;;;5013855;28;20181;-60
2022/06/28 11:42:25;;;;;;;4.72;1.25;;;23.20;56.50;;;;;;5014922;28;20172;-61
2022/06/28 11:44:51;;;;;;;1.77;1.00;;;23.20;56.50;;;;;;5014380;28;20187;-60
2022/06/28 11:47:17;;;;;;;2.63;1.00;;;23.20;56.60;;;;;;4996293;28;20643;-60
2022/06/28 11:49:43;;;;;;;3.25;1.00;;;23.20;56.60;;;;;;4996903;28;20236;-60
2022/06/28 11:52:16;;;;;;;2.22;0.77;;;23.20;56.70;;;;;;5014373;28;20556;-60
2022/06/28 11:54:52;;;;;;;2.22;0.88;;;23.20;56.70;;;;;;5012099;28;20647;-60
2022/06/28 11:57:18;;;;;;;3.90;1.17;;;23.20;56.80;;;;;;5014444;28;20180;-60
2022/06/28 12:00:02;;;;;;;2.58;1.08;;;23.10;56.70;;;;;;5013865;28;20671;-61
2022/06/28 12:02:40;;;;;;;1.50;0.82;;;23.10;56.70;;;;;;5013415;28;20176;-60
2022/06/28 12:05:06;;;;;;;1.20;0.95;;;23.10;56.80;;;;;;5014094;28;20196;-60
2022/06/28 12:07:34;;;;;;;1.40;0.90;;;23.00;56.80;;;;;;5014345;28;20184;-60
2022/06/28 12:09:59;;;;;;;2.10;0.90;;;23.10;56.90;;;;;;5013105;28;20220;-61
2022/06/28 12:12:25;;;;;;;3.85;0.95;;;23.10;56.80;;;;;;5014118;28;20176;-61
2022/06/28 12:14:55;;;;;;;1.33;0.88;;;23.10;56.70;;;;;;5013035;28;20180;-61
2022/06/28 12:17:21;;;;;;;2.90;1.00;;;23.10;56.70;;;;;;5013857;28;20180;-61
2022/06/28 12:19:46;;;;;;;2.90;1.10;;;23.20;56.70;;;;;;5013513;28;20180;-61
2022/06/28 12:22:25;;;;;;;1.90;0.85;;;23.10;57.30;;;;;;5013113;28;20251;-61
2022/06/28 12:24:51;;;;;;;5.07;1.00;;;23.10;56.80;;;;;;5013649;28;20551;-61
2022/06/28 12:27:18;;;;;;;2.90;0.90;;;23.10;56.80;;;;;;5013909;28;20176;-60
2022/06/28 12:29:43;;;;;;;1.55;0.93;;;23.10;56.70;;;;;;5012560;28;20211;-60
2022/06/28 12:32:09;;;;;;;2.78;0.88;;;23.10;56.70;;;;;;5013791;28;20173;-60
2022/06/28 12:34:34;;;;;;;1.95;0.80;;;23.10;56.70;;;;;;5013897;28;20263;-60
2022/06/28 12:37:00;;;;;;;1.92;0.95;;;23.10;56.70;;;;;;5012996;28;20632;-61
2022/06/28 12:39:25;;;;;;;1.58;0.80;;;23.20;56.60;;;;;;5013111;28;20191;-61
2022/06/28 12:41:51;;;;;;;3.45;0.85;;;23.20;56.50;;;;;;5013598;28;20252;-62
2022/06/28 12:44:17;;;;;;;1.58;0.98;;;23.10;56.60;;;;;;5012739;28;20599;-63
2022/06/28 12:46:43;;;;;;;2.25;0.93;;;23.10;56.70;;;;;;5013463;28;20176;-61
2022/06/28 12:49:09;;;;;;;2.45;1.00;;;23.10;56.70;;;;;;5013274;28;20666;-60
2022/06/28 12:51:34;;;;;;;4.88;1.15;;;23.20;56.50;;;;;;5012635;28;20208;-59
2022/06/28 12:54:00;;;;;;;2.25;0.77;;;23.10;56.40;;;;;;5013168;28;20172;-60
2022/06/28 12:56:26;;;;;;;1.85;0.95;;;23.20;56.30;;;;;;5013522;28;20179;-60
2022/06/28 12:58:52;;;;;;;5.32;0.90;;;23.20;56.20;;;;;;5011630;28;20179;-60